ACA764 CYYZ-KBOS
Flight info
| Callsign | ACA764 |
|---|---|
| Flight time | 1h 5m |
| Altitude | 37000 |
| Route | KEPTA3 BMPAH DCT AEVON DCT HANKK DCT PONCT JFUND2 |
| Aircraft | A321/M-SDE3FGHIRWY/LB1 |
Departure
| Time | 2026-05-04 22:04 |
|---|---|
| Airport | Toronto Pearson International Airport (CYYZ) |
Arrival
| Time | 2026-05-04 23:09 |
|---|---|
| Airport | Boston Logan International Airport (KBOS) |
| Time | Latitude | Longitude | Altitude | Speed | Heading |
|---|---|---|---|---|---|
| 2026-05-04 21:23 | 43.67782 | -79.61075 | 572 ft | 0 kts | 242° |
| 2026-05-04 21:50 | 43.67783 | -79.61074 | 568 ft | 1 kts | 242° |
| 2026-05-04 21:50 | 43.67794 | -79.61044 | 569 ft | 4 kts | 242° |
| 2026-05-04 21:50 | 43.67807 | -79.61011 | 572 ft | 4 kts | 242° |
| 2026-05-04 21:50 | 43.67819 | -79.60979 | 572 ft | 4 kts | 241° |
| 2026-05-04 21:51 | 43.67832 | -79.60947 | 571 ft | 4 kts | 240° |
| 2026-05-04 21:51 | 43.67835 | -79.60941 | 572 ft | 0 kts | 240° |
| 2026-05-04 21:58 | 43.67833 | -79.60946 | 572 ft | 1 kts | 240° |
| 2026-05-04 21:58 | 43.67818 | -79.60953 | 569 ft | 2 kts | 154° |
| 2026-05-04 21:58 | 43.67796 | -79.60918 | 567 ft | 9 kts | 133° |
| 2026-05-04 21:58 | 43.67763 | -79.60873 | 567 ft | 3 kts | 141° |
| 2026-05-04 21:59 | 43.67742 | -79.60845 | 566 ft | 4 kts | 136° |
| 2026-05-04 21:59 | 43.67740 | -79.60843 | 566 ft | 0 kts | 136° |
| 2026-05-04 21:59 | 43.67734 | -79.60834 | 566 ft | 5 kts | 136° |
| 2026-05-04 21:59 | 43.67695 | -79.60783 | 572 ft | 8 kts | 136° |
| 2026-05-04 22:00 | 43.67676 | -79.60729 | 574 ft | 5 kts | 99° |
| 2026-05-04 22:00 | 43.67675 | -79.60675 | 569 ft | 9 kts | 100° |
| 2026-05-04 22:00 | 43.67652 | -79.60596 | 573 ft | 8 kts | 92° |
| 2026-05-04 22:00 | 43.67671 | -79.60541 | 575 ft | 6 kts | 50° |
| 2026-05-04 22:01 | 43.67696 | -79.60504 | 572 ft | 7 kts | 46° |
| 2026-05-04 22:01 | 43.67743 | -79.60436 | 571 ft | 12 kts | 46° |
| 2026-05-04 22:01 | 43.67806 | -79.60344 | 575 ft | 14 kts | 46° |
| 2026-05-04 22:01 | 43.67869 | -79.60252 | 570 ft | 13 kts | 46° |
| 2026-05-04 22:02 | 43.67932 | -79.60161 | 568 ft | 14 kts | 46° |
| 2026-05-04 22:02 | 43.68000 | -79.60062 | 569 ft | 14 kts | 46° |
| 2026-05-04 22:02 | 43.68063 | -79.59971 | 576 ft | 12 kts | 48° |
| 2026-05-04 22:02 | 43.68066 | -79.59878 | 575 ft | 9 kts | 124° |
| 2026-05-04 22:03 | 43.68029 | -79.59828 | 573 ft | 5 kts | 137° |
| 2026-05-04 22:03 | 43.68014 | -79.59808 | 576 ft | 4 kts | 136° |
| 2026-05-04 22:03 | 43.67957 | -79.59730 | 577 ft | 13 kts | 136° |
| 2026-05-04 22:03 | 43.67879 | -79.59769 | 576 ft | 19 kts | 226° |
| 2026-05-04 22:04 | 43.67627 | -79.60137 | 577 ft | 85 kts | 226° |
| 2026-05-04 22:04 | 43.67096 | -79.60905 | 572 ft | 136 kts | 226° |
| 2026-05-04 22:04 | 43.66365 | -79.61992 | 721 ft | 163 kts | 227° |
| 2026-05-04 22:04 | 43.65625 | -79.63087 | 1529 ft | 152 kts | 226° |
| 2026-05-04 22:05 | 43.64917 | -79.64150 | 2220 ft | 149 kts | 226° |
| 2026-05-04 22:05 | 43.64206 | -79.65235 | 2714 ft | 161 kts | 227° |
| 2026-05-04 22:05 | 43.63419 | -79.66435 | 3145 ft | 174 kts | 229° |
| 2026-05-04 22:05 | 43.62602 | -79.67717 | 3744 ft | 182 kts | 229° |
| 2026-05-04 22:06 | 43.61733 | -79.69028 | 4425 ft | 190 kts | 224° |
| 2026-05-04 22:06 | 43.60456 | -79.69846 | 4771 ft | 224 kts | 191° |
| 2026-05-04 22:06 | 43.58821 | -79.69306 | 5210 ft | 262 kts | 158° |
| 2026-05-04 22:06 | 43.57275 | -79.67815 | 5944 ft | 278 kts | 147° |
| 2026-05-04 22:07 | 43.55816 | -79.66030 | 6682 ft | 286 kts | 143° |
| 2026-05-04 22:07 | 43.54367 | -79.64119 | 7537 ft | 289 kts | 142° |
| 2026-05-04 22:07 | 43.52914 | -79.62188 | 8339 ft | 294 kts | 141° |
| 2026-05-04 22:07 | 43.51691 | -79.59844 | 9122 ft | 309 kts | 120° |
| 2026-05-04 22:08 | 43.51075 | -79.56967 | 9877 ft | 320 kts | 99° |
| 2026-05-04 22:08 | 43.51193 | -79.53868 | 10564 ft | 330 kts | 79° |
| 2026-05-04 22:08 | 43.51754 | -79.50685 | 10792 ft | 354 kts | 76° |
| 2026-05-04 22:08 | 43.52354 | -79.47298 | 11137 ft | 370 kts | 81° |
| 2026-05-04 22:09 | 43.52578 | -79.43746 | 11762 ft | 375 kts | 93° |
| 2026-05-04 22:09 | 43.52283 | -79.40167 | 12484 ft | 375 kts | 106° |
| 2026-05-04 22:09 | 43.51477 | -79.36771 | 13213 ft | 375 kts | 117° |
| 2026-05-04 22:09 | 43.50455 | -79.33455 | 13881 ft | 379 kts | 117° |
| 2026-05-04 22:10 | 43.49423 | -79.30107 | 14506 ft | 383 kts | 117° |
| 2026-05-04 22:10 | 43.48373 | -79.26687 | 15162 ft | 388 kts | 116° |
| 2026-05-04 22:10 | 43.47318 | -79.23243 | 15801 ft | 392 kts | 116° |
| 2026-05-04 22:10 | 43.46246 | -79.19745 | 16437 ft | 396 kts | 116° |
| 2026-05-04 22:11 | 43.45170 | -79.16224 | 17070 ft | 401 kts | 116° |
| 2026-05-04 22:11 | 43.44096 | -79.12712 | 17691 ft | 405 kts | 116° |
| 2026-05-04 22:11 | 43.43000 | -79.09141 | 18264 ft | 409 kts | 116° |
| 2026-05-04 22:11 | 43.41876 | -79.05509 | 18786 ft | 414 kts | 116° |
| 2026-05-04 22:12 | 43.40744 | -79.01866 | 19309 ft | 418 kts | 115° |
| 2026-05-04 22:12 | 43.39587 | -78.98148 | 19825 ft | 422 kts | 115° |
| 2026-05-04 22:12 | 43.38431 | -78.94427 | 20337 ft | 426 kts | 115° |
| 2026-05-04 22:12 | 43.37256 | -78.90652 | 20831 ft | 430 kts | 115° |
| 2026-05-04 22:13 | 43.36072 | -78.86853 | 21342 ft | 434 kts | 115° |
| 2026-05-04 22:13 | 43.34880 | -78.83047 | 21834 ft | 438 kts | 115° |
| 2026-05-04 22:13 | 43.33669 | -78.79191 | 22321 ft | 442 kts | 115° |
| 2026-05-04 22:13 | 43.32439 | -78.75273 | 22838 ft | 446 kts | 115° |
| 2026-05-04 22:14 | 43.31207 | -78.71349 | 23298 ft | 450 kts | 115° |
| 2026-05-04 22:14 | 43.29958 | -78.67378 | 23710 ft | 453 kts | 115° |
| 2026-05-04 22:14 | 43.28719 | -78.63447 | 24127 ft | 456 kts | 115° |
| 2026-05-04 22:14 | 43.27451 | -78.59434 | 24544 ft | 459 kts | 115° |
| 2026-05-04 22:15 | 43.26180 | -78.55408 | 24961 ft | 461 kts | 114° |
| 2026-05-04 22:15 | 43.24898 | -78.51349 | 25373 ft | 463 kts | 114° |
| 2026-05-04 22:15 | 43.23609 | -78.47267 | 25805 ft | 465 kts | 114° |
| 2026-05-04 22:15 | 43.22318 | -78.43194 | 26232 ft | 468 kts | 114° |
| 2026-05-04 22:16 | 43.21014 | -78.39086 | 26655 ft | 470 kts | 114° |
| 2026-05-04 22:16 | 43.19704 | -78.35039 | 27055 ft | 472 kts | 117° |
| 2026-05-04 22:16 | 43.18056 | -78.31151 | 27446 ft | 472 kts | 127° |
| 2026-05-04 22:16 | 43.16034 | -78.27584 | 27845 ft | 473 kts | 132° |
| 2026-05-04 22:17 | 43.13946 | -78.24104 | 28241 ft | 475 kts | 131° |
| 2026-05-04 22:17 | 43.11872 | -78.20637 | 28627 ft | 477 kts | 131° |
| 2026-05-04 22:17 | 43.09739 | -78.17067 | 29007 ft | 480 kts | 131° |
| 2026-05-04 22:17 | 43.07610 | -78.13499 | 29368 ft | 482 kts | 131° |
| 2026-05-04 22:18 | 43.05509 | -78.09981 | 29727 ft | 484 kts | 131° |
| 2026-05-04 22:18 | 43.03347 | -78.06370 | 30019 ft | 487 kts | 131° |
| 2026-05-04 22:18 | 43.01218 | -78.02820 | 30308 ft | 489 kts | 131° |
| 2026-05-04 22:18 | 42.99046 | -77.99213 | 30587 ft | 491 kts | 131° |
| 2026-05-04 22:19 | 42.96872 | -77.95612 | 30916 ft | 493 kts | 131° |
| 2026-05-04 22:19 | 42.94800 | -77.91871 | 31213 ft | 496 kts | 123° |
| 2026-05-04 22:19 | 42.93150 | -77.87760 | 31624 ft | 497 kts | 114° |
| 2026-05-04 22:19 | 42.91953 | -77.83298 | 32043 ft | 495 kts | 104° |
| 2026-05-04 22:20 | 42.91266 | -77.78761 | 32452 ft | 493 kts | 95° |
| 2026-05-04 22:20 | 42.91041 | -77.74097 | 32871 ft | 490 kts | 89° |
| 2026-05-04 22:20 | 42.90937 | -77.69426 | 33312 ft | 490 kts | 89° |
| 2026-05-04 22:20 | 42.90828 | -77.64834 | 33745 ft | 489 kts | 89° |
| 2026-05-04 22:21 | 42.90713 | -77.60142 | 34121 ft | 488 kts | 89° |
| 2026-05-04 22:21 | 42.90595 | -77.55531 | 34500 ft | 487 kts | 89° |
| 2026-05-04 22:21 | 42.90472 | -77.50968 | 34866 ft | 486 kts | 89° |
| 2026-05-04 22:21 | 42.90346 | -77.46316 | 35213 ft | 485 kts | 89° |
| 2026-05-04 22:22 | 42.90224 | -77.41761 | 35545 ft | 485 kts | 89° |
| 2026-05-04 22:22 | 42.90100 | -77.37147 | 35870 ft | 485 kts | 90° |
| 2026-05-04 22:22 | 42.89974 | -77.32537 | 36182 ft | 484 kts | 90° |
| 2026-05-04 22:22 | 42.89849 | -77.27998 | 36478 ft | 484 kts | 90° |
| 2026-05-04 22:23 | 42.89720 | -77.23340 | 36687 ft | 485 kts | 90° |
| 2026-05-04 22:23 | 42.89460 | -77.14242 | 36738 ft | 481 kts | 90° |
| 2026-05-04 22:24 | 42.89188 | -77.05128 | 36744 ft | 480 kts | 90° |
| 2026-05-04 22:24 | 42.88906 | -76.96074 | 36749 ft | 481 kts | 90° |
| 2026-05-04 22:25 | 42.88619 | -76.86981 | 36750 ft | 481 kts | 90° |
| 2026-05-04 22:25 | 42.88323 | -76.77826 | 36761 ft | 481 kts | 90° |
| 2026-05-04 22:26 | 42.88026 | -76.68733 | 36773 ft | 481 kts | 90° |
| 2026-05-04 22:26 | 42.87716 | -76.59619 | 36763 ft | 481 kts | 90° |
| 2026-05-04 22:27 | 42.87391 | -76.50596 | 36773 ft | 481 kts | 90° |
| 2026-05-04 22:27 | 42.87111 | -76.43011 | 36780 ft | 481 kts | 90° |
| 2026-05-04 22:28 | 42.86730 | -76.32339 | 36779 ft | 480 kts | 90° |
| 2026-05-04 22:28 | 42.86388 | -76.23230 | 35934 ft | 490 kts | 90° |
| 2026-05-04 22:28 | 42.86214 | -76.18616 | 35111 ft | 494 kts | 90° |
| 2026-05-04 22:29 | 42.86033 | -76.13927 | 34507 ft | 492 kts | 89° |
| 2026-05-04 22:29 | 42.85912 | -76.10810 | 34174 ft | 490 kts | 89° |
| 2026-05-04 22:29 | 42.85669 | -76.04694 | 33723 ft | 480 kts | 89° |
| 2026-05-04 22:29 | 42.85549 | -76.01689 | 33384 ft | 478 kts | 89° |
| 2026-05-04 22:30 | 42.85372 | -75.97207 | 32701 ft | 477 kts | 89° |
| 2026-05-04 22:30 | 42.85191 | -75.92639 | 31947 ft | 479 kts | 90° |
| 2026-05-04 22:30 | 42.85011 | -75.88162 | 31184 ft | 481 kts | 90° |
| 2026-05-04 22:30 | 42.84827 | -75.83603 | 30406 ft | 483 kts | 90° |
| 2026-05-04 22:31 | 42.84638 | -75.79009 | 29598 ft | 485 kts | 91° |
| 2026-05-04 22:31 | 42.84445 | -75.74424 | 28713 ft | 487 kts | 91° |
| 2026-05-04 22:31 | 42.84246 | -75.69766 | 27805 ft | 488 kts | 91° |
| 2026-05-04 22:31 | 42.84048 | -75.65151 | 26865 ft | 491 kts | 91° |
| 2026-05-04 22:32 | 42.83851 | -75.60538 | 25962 ft | 493 kts | 91° |
| 2026-05-04 22:32 | 42.83652 | -75.55878 | 25035 ft | 496 kts | 91° |
| 2026-05-04 22:32 | 42.83448 | -75.51153 | 24247 ft | 498 kts | 91° |
| 2026-05-04 22:32 | 42.83239 | -75.46436 | 23952 ft | 501 kts | 92° |
| 2026-05-04 22:33 | 42.83024 | -75.41682 | 23745 ft | 502 kts | 92° |
| 2026-05-04 22:33 | 42.82804 | -75.36919 | 23794 ft | 502 kts | 91° |
| 2026-05-04 22:33 | 42.82585 | -75.32168 | 23786 ft | 502 kts | 91° |
| 2026-05-04 22:33 | 42.82370 | -75.27480 | 23791 ft | 502 kts | 91° |
| 2026-05-04 22:34 | 42.82156 | -75.22726 | 23792 ft | 502 kts | 91° |
| 2026-05-04 22:34 | 42.81940 | -75.17995 | 23799 ft | 502 kts | 91° |
| 2026-05-04 22:34 | 42.81716 | -75.13213 | 23804 ft | 502 kts | 92° |
| 2026-05-04 22:34 | 42.81489 | -75.08461 | 23804 ft | 502 kts | 92° |
| 2026-05-04 22:35 | 42.81255 | -75.03726 | 23798 ft | 501 kts | 92° |
| 2026-05-04 22:35 | 42.81020 | -74.99006 | 23812 ft | 500 kts | 92° |
| 2026-05-04 22:35 | 42.80857 | -74.95713 | 23805 ft | 499 kts | 92° |
| 2026-05-04 22:35 | 42.80818 | -74.94939 | 23806 ft | 499 kts | 92° |
| 2026-05-04 22:36 | 42.80582 | -74.90206 | 23803 ft | 499 kts | 92° |
| 2026-05-04 22:36 | 42.80349 | -74.85471 | 23805 ft | 499 kts | 92° |
| 2026-05-04 22:36 | 42.80115 | -74.80750 | 23804 ft | 499 kts | 92° |
| 2026-05-04 22:36 | 42.79881 | -74.76048 | 23806 ft | 499 kts | 92° |
| 2026-05-04 22:37 | 42.79645 | -74.71373 | 23811 ft | 500 kts | 92° |
| 2026-05-04 22:37 | 42.79404 | -74.66648 | 23807 ft | 500 kts | 92° |
| 2026-05-04 22:37 | 42.79159 | -74.61903 | 23806 ft | 500 kts | 92° |
| 2026-05-04 22:37 | 42.78914 | -74.57183 | 23804 ft | 500 kts | 92° |
| 2026-05-04 22:38 | 42.78667 | -74.52508 | 23803 ft | 500 kts | 92° |
| 2026-05-04 22:38 | 42.78413 | -74.47780 | 23808 ft | 500 kts | 92° |
| 2026-05-04 22:38 | 42.78161 | -74.43078 | 23808 ft | 500 kts | 92° |
| 2026-05-04 22:38 | 42.77909 | -74.38342 | 23808 ft | 500 kts | 92° |
| 2026-05-04 22:39 | 42.77656 | -74.33615 | 23811 ft | 500 kts | 92° |
| 2026-05-04 22:39 | 42.77399 | -74.28870 | 23807 ft | 500 kts | 92° |
| 2026-05-04 22:39 | 42.77142 | -74.24177 | 23808 ft | 500 kts | 92° |
| 2026-05-04 22:39 | 42.76880 | -74.19446 | 23807 ft | 500 kts | 92° |
| 2026-05-04 22:40 | 42.76614 | -74.14732 | 23805 ft | 500 kts | 92° |
| 2026-05-04 22:40 | 42.76345 | -74.09995 | 23807 ft | 500 kts | 92° |
| 2026-05-04 22:40 | 42.76081 | -74.05350 | 23795 ft | 500 kts | 92° |
| 2026-05-04 22:40 | 42.75812 | -74.00615 | 23794 ft | 500 kts | 92° |
| 2026-05-04 22:41 | 42.75542 | -73.95918 | 23795 ft | 499 kts | 92° |
| 2026-05-04 22:41 | 42.75266 | -73.91193 | 23795 ft | 499 kts | 92° |
| 2026-05-04 22:41 | 42.74989 | -73.86490 | 23794 ft | 499 kts | 93° |
| 2026-05-04 22:41 | 42.74714 | -73.81824 | 23794 ft | 499 kts | 92° |
| 2026-05-04 22:42 | 42.74518 | -73.77113 | 23796 ft | 498 kts | 90° |
| 2026-05-04 22:42 | 42.74442 | -73.72394 | 23794 ft | 497 kts | 88° |
| 2026-05-04 22:42 | 42.74449 | -73.67696 | 23796 ft | 497 kts | 87° |
| 2026-05-04 22:42 | 42.74488 | -73.63031 | 23799 ft | 496 kts | 87° |
| 2026-05-04 22:43 | 42.74521 | -73.58339 | 23798 ft | 496 kts | 87° |
| 2026-05-04 22:43 | 42.74529 | -73.53661 | 23804 ft | 496 kts | 88° |
| 2026-05-04 22:43 | 42.74510 | -73.48955 | 23810 ft | 496 kts | 88° |
| 2026-05-04 22:43 | 42.74469 | -73.44294 | 23818 ft | 496 kts | 89° |
| 2026-05-04 22:44 | 42.74410 | -73.39593 | 23816 ft | 496 kts | 89° |
| 2026-05-04 22:44 | 42.74346 | -73.34904 | 23816 ft | 496 kts | 89° |
| 2026-05-04 22:44 | 42.74283 | -73.30222 | 23813 ft | 496 kts | 89° |
| 2026-05-04 22:44 | 42.74225 | -73.25573 | 23812 ft | 494 kts | 89° |
| 2026-05-04 22:45 | 42.74173 | -73.20860 | 23813 ft | 494 kts | 89° |
| 2026-05-04 22:45 | 42.74026 | -73.11525 | 23828 ft | 495 kts | 93° |
| 2026-05-04 22:45 | 42.73557 | -73.06902 | 23835 ft | 496 kts | 97° |
| 2026-05-04 22:46 | 42.73022 | -73.02271 | 23828 ft | 496 kts | 97° |
| 2026-05-04 22:46 | 42.72488 | -72.97625 | 23833 ft | 496 kts | 97° |
| 2026-05-04 22:46 | 42.71957 | -72.93022 | 23842 ft | 496 kts | 97° |
| 2026-05-04 22:46 | 42.71416 | -72.88369 | 23833 ft | 495 kts | 97° |
| 2026-05-04 22:47 | 42.70873 | -72.83748 | 23835 ft | 495 kts | 97° |
| 2026-05-04 22:47 | 42.70328 | -72.79125 | 23835 ft | 495 kts | 97° |
| 2026-05-04 22:47 | 42.69780 | -72.74480 | 23836 ft | 495 kts | 97° |
| 2026-05-04 22:47 | 42.69244 | -72.69939 | 23835 ft | 495 kts | 97° |
| 2026-05-04 22:48 | 42.68699 | -72.65332 | 23835 ft | 495 kts | 98° |
| 2026-05-04 22:48 | 42.68146 | -72.60673 | 23834 ft | 495 kts | 98° |
| 2026-05-04 22:48 | 42.67592 | -72.56063 | 23833 ft | 494 kts | 97° |
| 2026-05-04 22:48 | 42.67035 | -72.51486 | 23834 ft | 494 kts | 98° |
| 2026-05-04 22:49 | 42.66471 | -72.46890 | 23833 ft | 494 kts | 98° |
| 2026-05-04 22:49 | 42.65903 | -72.42270 | 23832 ft | 494 kts | 98° |
| 2026-05-04 22:49 | 42.65336 | -72.37678 | 23604 ft | 490 kts | 98° |
| 2026-05-04 22:49 | 42.64768 | -72.33102 | 22539 ft | 491 kts | 98° |
| 2026-05-04 22:50 | 42.64215 | -72.28601 | 21379 ft | 490 kts | 98° |
| 2026-05-04 22:50 | 42.63677 | -72.24037 | 20327 ft | 478 kts | 98° |
| 2026-05-04 22:50 | 42.63181 | -72.19720 | 20124 ft | 446 kts | 98° |
| 2026-05-04 22:50 | 42.62718 | -72.15683 | 19699 ft | 416 kts | 98° |
| 2026-05-04 22:51 | 42.62283 | -72.11905 | 18895 ft | 401 kts | 98° |
| 2026-05-04 22:51 | 42.61850 | -72.08173 | 17927 ft | 393 kts | 99° |
| 2026-05-04 22:51 | 42.61428 | -72.04555 | 17165 ft | 389 kts | 99° |
| 2026-05-04 22:51 | 42.61004 | -72.00981 | 17047 ft | 388 kts | 99° |
| 2026-05-04 22:52 | 42.60561 | -71.97350 | 17038 ft | 391 kts | 99° |
| 2026-05-04 22:52 | 42.60111 | -71.93717 | 16635 ft | 387 kts | 100° |
| 2026-05-04 22:52 | 42.59656 | -71.90120 | 16148 ft | 385 kts | 100° |
| 2026-05-04 22:52 | 42.59204 | -71.86544 | 15681 ft | 381 kts | 100° |
| 2026-05-04 22:53 | 42.58756 | -71.83016 | 15214 ft | 378 kts | 100° |
| 2026-05-04 22:53 | 42.58287 | -71.79518 | 14943 ft | 375 kts | 101° |
| 2026-05-04 22:53 | 42.57763 | -71.76052 | 14499 ft | 372 kts | 103° |
| 2026-05-04 22:53 | 42.57220 | -71.72677 | 14073 ft | 370 kts | 103° |
| 2026-05-04 22:54 | 42.56663 | -71.69301 | 13632 ft | 367 kts | 103° |
| 2026-05-04 22:54 | 42.56105 | -71.65915 | 13143 ft | 364 kts | 103° |
| 2026-05-04 22:54 | 42.55561 | -71.62565 | 12686 ft | 362 kts | 103° |
| 2026-05-04 22:54 | 42.55030 | -71.59264 | 12229 ft | 359 kts | 103° |
| 2026-05-04 22:55 | 42.54443 | -71.55996 | 11928 ft | 352 kts | 105° |
| 2026-05-04 22:55 | 42.53803 | -71.52832 | 11791 ft | 340 kts | 107° |
| 2026-05-04 22:55 | 42.53156 | -71.49799 | 11644 ft | 328 kts | 107° |
| 2026-05-04 22:55 | 42.52516 | -71.46850 | 11374 ft | 322 kts | 107° |
| 2026-05-04 22:56 | 42.51891 | -71.43966 | 11015 ft | 320 kts | 107° |
| 2026-05-04 22:56 | 42.51274 | -71.41100 | 10650 ft | 318 kts | 106° |
| 2026-05-04 22:56 | 42.50663 | -71.38219 | 10296 ft | 316 kts | 106° |
| 2026-05-04 22:56 | 42.50065 | -71.35355 | 10012 ft | 314 kts | 105° |
| 2026-05-04 22:57 | 42.49493 | -71.32527 | 9775 ft | 313 kts | 105° |
| 2026-05-04 22:57 | 42.48928 | -71.29673 | 9351 ft | 312 kts | 105° |
| 2026-05-04 22:57 | 42.48372 | -71.26853 | 8934 ft | 311 kts | 105° |
| 2026-05-04 22:57 | 42.47816 | -71.24054 | 8565 ft | 309 kts | 106° |
| 2026-05-04 22:58 | 42.47256 | -71.21246 | 8188 ft | 307 kts | 106° |
| 2026-05-04 22:58 | 42.46702 | -71.18474 | 7820 ft | 305 kts | 106° |
| 2026-05-04 22:58 | 42.46165 | -71.15703 | 7413 ft | 303 kts | 102° |
| 2026-05-04 22:58 | 42.45887 | -71.12904 | 7062 ft | 302 kts | 98° |
| 2026-05-04 22:59 | 42.45633 | -71.10037 | 6994 ft | 303 kts | 98° |
| 2026-05-04 22:59 | 42.45377 | -71.07236 | 7012 ft | 303 kts | 98° |
| 2026-05-04 22:59 | 42.45115 | -71.04404 | 6996 ft | 303 kts | 98° |
| 2026-05-04 22:59 | 42.44841 | -71.01569 | 7010 ft | 304 kts | 100° |
| 2026-05-04 23:00 | 42.44501 | -70.98739 | 6978 ft | 303 kts | 101° |
| 2026-05-04 23:00 | 42.44284 | -70.95935 | 6806 ft | 294 kts | 89° |
| 2026-05-04 23:00 | 42.44555 | -70.93259 | 6669 ft | 278 kts | 78° |
| 2026-05-04 23:00 | 42.44926 | -70.90776 | 6226 ft | 269 kts | 79° |
| 2026-05-04 23:01 | 42.45300 | -70.88320 | 5812 ft | 259 kts | 79° |
| 2026-05-04 23:01 | 42.45658 | -70.85977 | 5345 ft | 257 kts | 78° |
| 2026-05-04 23:01 | 42.46020 | -70.83621 | 5087 ft | 254 kts | 78° |
| 2026-05-04 23:01 | 42.46378 | -70.81299 | 4741 ft | 251 kts | 79° |
| 2026-05-04 23:02 | 42.46734 | -70.78975 | 4333 ft | 250 kts | 79° |
| 2026-05-04 23:02 | 42.47077 | -70.76696 | 3969 ft | 249 kts | 79° |
| 2026-05-04 23:02 | 42.47365 | -70.74367 | 3603 ft | 245 kts | 92° |
| 2026-05-04 23:02 | 42.46954 | -70.72238 | 3271 ft | 233 kts | 126° |
| 2026-05-04 23:03 | 42.45820 | -70.70805 | 3016 ft | 217 kts | 159° |
| 2026-05-04 23:03 | 42.44435 | -70.69996 | 3013 ft | 217 kts | 165° |
| 2026-05-04 23:03 | 42.43003 | -70.69420 | 2995 ft | 210 kts | 184° |
| 2026-05-04 23:03 | 42.41658 | -70.69913 | 3007 ft | 199 kts | 218° |
| 2026-05-04 23:04 | 42.40755 | -70.71276 | 3027 ft | 195 kts | 242° |
| 2026-05-04 23:04 | 42.40313 | -70.73011 | 3022 ft | 195 kts | 257° |
| 2026-05-04 23:04 | 42.40146 | -70.74809 | 3010 ft | 186 kts | 260° |
| 2026-05-04 23:04 | 42.39931 | -70.76446 | 3007 ft | 172 kts | 257° |
| 2026-05-04 23:05 | 42.39681 | -70.77993 | 3020 ft | 166 kts | 256° |
| 2026-05-04 23:05 | 42.39418 | -70.79506 | 3026 ft | 164 kts | 255° |
| 2026-05-04 23:05 | 42.39153 | -70.81007 | 3013 ft | 163 kts | 254° |
| 2026-05-04 23:05 | 42.38890 | -70.82496 | 3011 ft | 162 kts | 254° |
| 2026-05-04 23:06 | 42.38636 | -70.83931 | 3026 ft | 148 kts | 254° |
| 2026-05-04 23:06 | 42.38402 | -70.85260 | 3017 ft | 143 kts | 253° |
| 2026-05-04 23:06 | 42.38169 | -70.86557 | 2999 ft | 141 kts | 253° |
| 2026-05-04 23:06 | 42.37968 | -70.87811 | 2859 ft | 130 kts | 255° |
| 2026-05-04 23:07 | 42.37811 | -70.88970 | 2511 ft | 123 kts | 256° |
| 2026-05-04 23:07 | 42.37647 | -70.90119 | 2049 ft | 126 kts | 254° |
| 2026-05-04 23:07 | 42.37454 | -70.91288 | 1573 ft | 128 kts | 253° |
| 2026-05-04 23:07 | 42.37213 | -70.92440 | 1166 ft | 126 kts | 248° |
| 2026-05-04 23:08 | 42.36958 | -70.93536 | 843 ft | 121 kts | 249° |
| 2026-05-04 23:08 | 42.36725 | -70.94627 | 745 ft | 122 kts | 251° |
| 2026-05-04 23:08 | 42.36533 | -70.95746 | 614 ft | 123 kts | 253° |
| 2026-05-04 23:08 | 42.36376 | -70.96891 | 403 ft | 124 kts | 253° |
| 2026-05-04 23:09 | 42.36161 | -70.98044 | 173 ft | 127 kts | 252° |
| 2026-05-04 23:09 | 42.35957 | -70.99183 | 28 ft | 124 kts | 252° |
| 2026-05-04 23:09 | 42.35781 | -71.00135 | 29 ft | 79 kts | 260° |
| 2026-05-04 23:09 | 42.35693 | -71.00637 | 22 ft | 41 kts | 257° |
| 2026-05-04 23:10 | 42.35631 | -71.01018 | 23 ft | 37 kts | 270° |
| 2026-05-04 23:10 | 42.35702 | -71.01224 | 25 ft | 10 kts | 309° |
| 2026-05-04 23:10 | 42.35725 | -71.01262 | 25 ft | 0 kts | 311° |
| 2026-05-04 23:10 | 42.35728 | -71.01270 | 30 ft | 3 kts | 299° |
| 2026-05-04 23:11 | 42.35732 | -71.01280 | 30 ft | 0 kts | 295° |
| 2026-05-04 23:11 | 42.35736 | -71.01292 | 26 ft | 2 kts | 295° |
| 2026-05-04 23:12 | 42.35738 | -71.01298 | 30 ft | 0 kts | 294° |
| 2026-05-04 23:12 | 42.35738 | -71.01300 | 26 ft | 1 kts | 294° |
| 2026-05-04 23:12 | 42.35757 | -71.01362 | 29 ft | 12 kts | 291° |
| 2026-05-04 23:12 | 42.35784 | -71.01461 | 31 ft | 10 kts | 289° |
| 2026-05-04 23:13 | 42.35807 | -71.01552 | 29 ft | 10 kts | 289° |
| 2026-05-04 23:13 | 42.35825 | -71.01651 | 30 ft | 11 kts | 282° |
| 2026-05-04 23:13 | 42.35841 | -71.01758 | 29 ft | 12 kts | 281° |
| 2026-05-04 23:13 | 42.35864 | -71.01868 | 28 ft | 13 kts | 294° |
| 2026-05-04 23:14 | 42.35909 | -71.01976 | 27 ft | 13 kts | 300° |
| 2026-05-04 23:14 | 42.35924 | -71.02013 | 26 ft | 2 kts | 300° |
| 2026-05-04 23:14 | 42.35931 | -71.02027 | 26 ft | 2 kts | 300° |
| 2026-05-04 23:14 | 42.35936 | -71.02039 | 31 ft | 1 kts | 300° |
| 2026-05-04 23:15 | 42.35936 | -71.02040 | 31 ft | 0 kts | 300° |
| 2026-05-04 23:15 | 42.35940 | -71.02047 | 30 ft | 5 kts | 300° |
| 2026-05-04 23:15 | 42.35977 | -71.02134 | 28 ft | 11 kts | 300° |